Time;durP1;ratioP1;P1;durP2;ratioP2;P2;SDS_P1;SDS_P2;PMS_P1;PMS_P2;Temp;Humidity;BMP_temperature;BMP_pressure;BME280_temperature;BME280_humidity;BME280_pressure;Samples;Min_cycle;Max_cycle;Signal;HPM_P1;HPM_P2
2021/06/17 00:00:01;;;;;;;15.13;13.43;;;21.80;81.90;;;;;;2041165;29;20059;-70
2021/06/17 00:01:02;;;;;;;14.68;13.25;;;21.70;81.90;;;;;;2033635;29;20408;-70
2021/06/17 00:02:06;;;;;;;14.43;13.02;;;21.70;82.10;;;;;;2034358;29;20020;-71
2021/06/17 00:03:07;;;;;;;14.93;13.45;;;21.70;82.10;;;;;;2034848;29;20453;-70
2021/06/17 00:04:08;;;;;;;15.55;13.95;;;21.70;82.10;;;;;;2033878;29;20028;-71
2021/06/17 00:05:12;;;;;;;15.13;13.52;;;21.70;83.00;;;;;;2042665;29;20372;-71
2021/06/17 00:06:13;;;;;;;14.90;13.40;;;21.60;81.80;;;;;;2043081;29;20035;-70
2021/06/17 00:07:13;;;;;;;14.50;13.00;;;21.70;81.80;;;;;;2034662;29;20043;-70
2021/06/17 00:08:14;;;;;;;13.90;12.60;;;21.70;81.90;;;;;;2033931;29;20027;-70
2021/06/17 00:09:16;;;;;;;13.75;12.35;;;21.70;82.00;;;;;;2034541;29;20038;-70
2021/06/17 00:10:36;;;;;;;14.07;12.68;;;21.60;81.90;;;;;;2034909;29;20083;-70
2021/06/17 00:11:37;;;;;;;13.85;12.18;;;21.60;81.90;;;;;;2042901;29;20059;-72
2021/06/17 00:12:38;;;;;;;12.90;11.63;;;21.60;81.80;;;;;;2033250;29;20506;-71
2021/06/17 00:13:39;;;;;;;13.02;11.75;;;21.60;81.70;;;;;;2033344;29;20035;-70
2021/06/17 00:14:40;;;;;;;13.30;12.10;;;21.60;81.80;;;;;;2041587;29;20059;-70
2021/06/17 00:15:41;;;;;;;13.02;11.80;;;21.50;81.50;;;;;;2032962;29;20032;-71
2021/06/17 00:16:41;;;;;;;12.82;11.63;;;21.50;81.40;;;;;;2032954;29;20428;-70
2021/06/17 00:17:43;;;;;;;12.98;11.75;;;21.50;81.40;;;;;;2041426;29;20534;-71
2021/06/17 00:18:44;;;;;;;13.02;11.73;;;21.50;81.30;;;;;;2032615;29;20105;-71
2021/06/17 00:19:46;;;;;;;13.20;11.90;;;21.50;81.30;;;;;;2033119;29;20079;-72
2021/06/17 00:20:48;;;;;;;12.88;11.68;;;21.50;81.30;;;;;;2032859;29;20067;-71
2021/06/17 00:21:49;;;;;;;14.30;11.85;;;21.40;81.20;;;;;;2033029;29;20032;-71
2021/06/17 00:22:50;;;;;;;13.18;11.68;;;21.40;80.90;;;;;;2041781;29;20028;-70
2021/06/17 00:23:52;;;;;;;13.15;11.82;;;21.40;80.70;;;;;;2042051;29;20016;-70
2021/06/17 00:24:52;;;;;;;13.48;12.07;;;21.50;80.60;;;;;;2032865;29;20171;-71
2021/06/17 00:25:53;;;;;;;13.50;12.20;;;21.40;80.40;;;;;;2033271;29;20028;-70
2021/06/17 00:26:54;;;;;;;14.18;11.65;;;21.40;80.20;;;;;;2042033;29;20103;-71
2021/06/17 00:27:54;;;;;;;13.60;12.25;;;21.40;79.80;;;;;;2034701;29;20396;-71
2021/06/17 00:28:55;;;;;;;14.23;11.73;;;21.40;79.80;;;;;;2034375;29;20100;-72
2021/06/17 00:29:56;;;;;;;14.18;12.13;;;21.40;79.80;;;;;;2035106;29;20487;-71
2021/06/17 00:30:57;;;;;;;13.38;11.98;;;21.40;79.60;;;;;;2027051;29;20169;-71
2021/06/17 00:31:58;;;;;;;13.90;12.32;;;21.50;79.60;;;;;;2035195;29;20104;-72
2021/06/17 00:32:59;;;;;;;12.60;11.25;;;21.50;79.40;;;;;;2043041;29;20083;-72
2021/06/17 00:34:00;;;;;;;12.82;11.52;;;21.40;79.30;;;;;;2035157;29;20028;-72
2021/06/17 00:35:00;;;;;;;12.90;11.43;;;21.50;79.30;;;;;;2026612;29;20067;-72
2021/06/17 00:36:01;;;;;;;12.57;11.38;;;21.50;79.30;;;;;;2026898;29;20485;-71
2021/06/17 00:37:02;;;;;;;13.35;12.02;;;21.40;79.10;;;;;;2035280;29;20194;-71
2021/06/17 00:38:04;;;;;;;13.10;11.82;;;21.50;79.30;;;;;;2041617;29;20031;-70
2021/06/17 00:39:07;;;;;;;13.40;12.10;;;21.40;79.70;;;;;;2040770;29;20098;-71
2021/06/17 00:40:11;;;;;;;15.70;13.60;;;21.40;79.90;;;;;;2024913;29;20051;-70
2021/06/17 00:41:12;;;;;;;16.85;13.32;;;21.40;80.10;;;;;;2025548;29;20060;-71
2021/06/17 00:42:12;;;;;;;16.33;13.57;;;21.50;80.60;;;;;;2033225;29;20029;-71
2021/06/17 00:43:13;;;;;;;13.73;12.10;;;21.40;81.20;;;;;;2041508;29;20531;-70
2021/06/17 00:44:14;;;;;;;16.02;13.18;;;21.40;81.30;;;;;;2040186;29;20482;-72
2021/06/17 00:45:27;;;;;;;15.13;13.52;;;21.40;81.70;;;;;;2040612;29;20087;-72
2021/06/17 00:46:27;;;;;;;13.75;12.45;;;21.40;81.50;;;;;;2032807;29;20595;-70
2021/06/17 00:47:28;;;;;;;13.73;12.32;;;21.40;81.70;;;;;;2032867;29;20032;-71
2021/06/17 00:48:29;;;;;;;13.75;12.35;;;21.40;81.50;;;;;;2040693;29;20431;-70
2021/06/17 00:49:30;;;;;;;14.35;12.85;;;21.30;81.40;;;;;;2032657;29;20031;-71
2021/06/17 00:50:34;;;;;;;15.90;13.52;;;21.30;81.90;;;;;;2034052;29;20056;-71
2021/06/17 00:51:35;;;;;;;14.57;12.30;;;21.30;81.50;;;;;;2034036;29;20072;-71
2021/06/17 00:52:36;;;;;;;13.82;12.20;;;21.30;81.40;;;;;;2017229;29;20044;-70
2021/06/17 00:53:37;;;;;;;13.57;12.23;;;21.30;81.70;;;;;;2016982;29;20048;-71
2021/06/17 00:54:37;;;;;;;13.40;12.10;;;21.30;81.50;;;;;;2032348;29;20034;-71
2021/06/17 00:55:40;;;;;;;13.95;12.40;;;21.30;81.30;;;;;;2032774;29;20107;-71
2021/06/17 00:56:41;;;;;;;16.45;13.52;;;21.20;81.30;;;;;;2033212;29;20059;-71
2021/06/17 00:57:41;;;;;;;15.90;12.73;;;21.20;81.30;;;;;;2041502;29;20038;-71
2021/06/17 00:58:42;;;;;;;15.10;12.48;;;21.20;81.50;;;;;;2040353;29;20035;-71
2021/06/17 00:59:43;;;;;;;13.43;12.13;;;21.20;81.90;;;;;;2040746;29;20031;-70
2021/06/17 01:00:44;;;;;;;13.13;11.80;;;21.20;81.90;;;;;;2040887;29;20094;-71
2021/06/17 01:01:44;;;;;;;13.25;12.00;;;21.20;81.90;;;;;;2041538;29;20032;-71
2021/06/17 01:02:45;;;;;;;12.80;11.50;;;21.20;81.90;;;;;;2042150;29;20040;-71
2021/06/17 01:03:46;;;;;;;12.25;11.05;;;21.20;81.90;;;;;;2026235;29;20040;-72
2021/06/17 01:04:46;;;;;;;12.35;11.25;;;21.10;81.90;;;;;;2026017;29;20107;-72
2021/06/17 01:05:48;;;;;;;12.52;11.32;;;21.10;81.80;;;;;;2034114;29;20881;-71
2021/06/17 01:06:50;;;;;;;12.82;11.38;;;21.10;81.70;;;;;;2034446;29;20031;-72
2021/06/17 01:08:07;;;;;;;12.65;11.35;;;21.10;81.80;;;;;;2034429;29;20076;-71
2021/06/17 01:09:19;;;;;;;12.90;11.60;;;21.10;82.00;;;;;;2036968;29;20100;-70
2021/06/17 01:10:30;;;;;;;;;;;21.10;82.00;;;;;;2035032;29;20031;-70
2021/06/17 01:11:45;;;;;;;12.77;11.55;;;21.00;81.70;;;;;;2028247;29;19915;-71
2021/06/17 01:13:02;;;;;;;13.10;11.80;;;21.00;81.80;;;;;;2035233;29;20036;-71
2021/06/17 01:14:09;;;;;;;12.68;11.38;;;21.00;81.70;;;;;;2028575;29;20040;-70
2021/06/17 01:15:14;;;;;;;12.02;10.82;;;21.00;81.70;;;;;;2036171;29;20520;-71
2021/06/17 01:16:36;;;;;;;12.45;11.23;;;21.00;82.00;;;;;;2043160;29;20808;-71
2021/06/17 01:17:43;;;;;;;12.90;11.70;;;21.00;81.90;;;;;;2043258;29;20035;-71
2021/06/17 01:18:49;;;;;;;12.52;11.32;;;21.00;81.90;;;;;;2034334;29;20103;-71
2021/06/17 01:19:57;;;;;;;13.02;11.73;;;21.00;81.90;;;;;;2035531;29;20036;-71
2021/06/17 01:21:04;;;;;;;13.43;12.07;;;20.90;81.80;;;;;;2043621;29;20123;-71
2021/06/17 01:22:33;;;;;;;13.15;11.75;;;21.00;81.80;;;;;;2043754;29;20024;-71
2021/06/17 01:24:13;;;;;;;12.60;11.30;;;20.90;81.60;;;;;;2033705;29;20092;-71
2021/06/17 01:25:34;;;;;;;12.65;11.40;;;20.90;81.60;;;;;;2016767;29;20031;-70
2021/06/17 01:26:51;;;;;;;12.43;11.23;;;20.90;81.50;;;;;;2027560;29;20032;-71
2021/06/17 01:28:07;;;;;;;12.45;11.25;;;20.90;81.60;;;;;;2034816;29;20024;-70
2021/06/17 01:29:12;;;;;;;12.85;11.55;;;20.80;81.60;;;;;;2032849;29;20098;-71
2021/06/17 01:30:16;;;;;;;12.48;11.27;;;20.80;81.80;;;;;;2027453;29;20061;-71
2021/06/17 01:31:20;;;;;;;12.13;10.93;;;20.80;81.80;;;;;;2032825;29;20063;-71
2021/06/17 01:32:23;;;;;;;11.70;10.60;;;20.80;81.90;;;;;;2025011;29;20040;-72
2021/06/17 01:33:27;;;;;;;12.18;10.95;;;20.80;82.00;;;;;;2017171;29;20043;-71
2021/06/17 01:34:28;;;;;;;12.07;10.88;;;20.80;82.10;;;;;;2024842;29;20064;-72
2021/06/17 01:35:33;;;;;;;12.40;11.20;;;20.80;82.10;;;;;;2016792;29;20057;-71
2021/06/17 01:36:40;;;;;;;12.77;11.07;;;20.80;82.10;;;;;;2018246;29;20036;-71
2021/06/17 01:37:41;;;;;;;13.13;11.82;;;20.80;82.30;;;;;;2032415;29;20024;-71
2021/06/17 01:38:56;;;;;;;14.48;12.38;;;20.80;82.50;;;;;;2024437;29;20055;-70
2021/06/17 01:39:59;;;;;;;13.95;12.55;;;20.80;82.70;;;;;;2024519;29;20028;-70
2021/06/17 01:41:01;;;;;;;13.13;11.77;;;20.80;82.60;;;;;;2017135;29;20076;-71
2021/06/17 01:42:04;;;;;;;13.55;12.15;;;20.80;82.50;;;;;;2032904;29;20480;-72
2021/06/17 01:43:06;;;;;;;13.32;11.93;;;20.80;82.50;;;;;;2040414;29;20070;-69
2021/06/17 01:44:08;;;;;;;12.95;11.65;;;20.70;82.60;;;;;;2032043;29;20075;-70
2021/06/17 01:45:10;;;;;;;12.65;11.35;;;20.70;82.70;;;;;;2032907;29;20467;-71
2021/06/17 01:46:12;;;;;;;12.73;11.43;;;20.70;82.90;;;;;;2041068;29;20168;-70
2021/06/17 01:47:13;;;;;;;12.88;11.60;;;20.70;83.00;;;;;;2041287;29;20031;-70
2021/06/17 01:48:14;;;;;;;12.77;11.43;;;20.70;83.00;;;;;;2032588;29;20107;-71
2021/06/17 01:49:17;;;;;;;13.15;11.85;;;20.60;82.90;;;;;;2032603;29;20063;-71
2021/06/17 01:50:19;;;;;;;12.30;11.20;;;20.60;83.00;;;;;;2032744;29;20035;-71
2021/06/17 01:51:22;;;;;;;13.68;12.00;;;20.60;83.00;;;;;;2032954;29;20107;-70
2021/06/17 01:52:25;;;;;;;12.70;11.50;;;20.60;83.00;;;;;;2032417;29;20539;-70
2021/06/17 01:53:26;;;;;;;13.13;11.75;;;20.60;83.00;;;;;;2032515;29;20412;-70
2021/06/17 01:54:28;;;;;;;12.63;11.35;;;20.50;82.90;;;;;;2031825;29;20028;-70
2021/06/17 01:55:35;;;;;;;12.35;11.15;;;20.60;83.00;;;;;;2024667;29;20062;-70
2021/06/17 01:56:37;;;;;;;12.35;11.15;;;20.50;83.00;;;;;;2033422;29;20075;-70
2021/06/17 01:57:39;;;;;;;12.05;10.93;;;20.50;83.10;;;;;;2040914;29;20028;-70
2021/06/17 01:58:41;;;;;;;12.45;11.25;;;20.50;83.00;;;;;;2040315;29;20103;-70
2021/06/17 01:59:44;;;;;;;12.07;10.88;;;20.50;83.00;;;;;;2032165;29;20046;-70
2021/06/17 02:00:47;;;;;;;11.90;10.80;;;20.50;83.00;;;;;;2032456;29;20039;-71
2021/06/17 02:01:50;;;;;;;12.73;11.48;;;20.50;83.00;;;;;;2032309;29;20028;-70
2021/06/17 02:02:52;;;;;;;12.02;10.75;;;20.50;82.90;;;;;;2032773;29;20020;-70
2021/06/17 02:03:53;;;;;;;11.90;10.80;;;20.50;82.90;;;;;;2040607;29;20079;-70
2021/06/17 02:04:55;;;;;;;13.25;11.60;;;20.40;82.90;;;;;;2031966;29;20032;-70
2021/06/17 02:05:56;;;;;;;12.57;11.27;;;20.40;82.70;;;;;;2032332;29;20028;-70
2021/06/17 02:06:58;;;;;;;12.30;11.07;;;20.40;82.80;;;;;;2016432;29;20547;-71
2021/06/17 02:08:00;;;;;;;12.68;11.40;;;20.40;82.70;;;;;;2016912;29;20039;-71
2021/06/17 02:09:02;;;;;;;11.77;10.63;;;20.40;82.70;;;;;;2024419;29;20112;-71
2021/06/17 02:10:04;;;;;;;11.90;10.80;;;20.40;82.60;;;;;;2024486;29;20028;-72
2021/06/17 02:11:04;;;;;;;11.80;10.70;;;20.40;82.50;;;;;;2024545;29;20036;-71
2021/06/17 02:12:06;;;;;;;12.73;11.43;;;20.40;82.50;;;;;;2040800;29;20464;-71
2021/06/17 02:13:11;;;;;;;11.73;10.52;;;20.40;82.50;;;;;;2032805;29;20448;-71
2021/06/17 02:14:12;;;;;;;12.05;10.85;;;20.40;82.50;;;;;;2017838;29;20068;-70
2021/06/17 02:15:13;;;;;;;11.90;10.80;;;20.40;82.60;;;;;;2018281;29;20091;-70
2021/06/17 02:16:16;;;;;;;12.18;10.98;;;20.40;82.60;;;;;;2033467;29;20115;-71
2021/06/17 02:17:18;;;;;;;11.70;10.60;;;20.40;82.70;;;;;;2042068;29;20040;-71
2021/06/17 02:18:25;;;;;;;11.93;10.77;;;20.30;82.50;;;;;;2041702;29;20063;-72
2021/06/17 02:19:28;;;;;;;11.57;10.45;;;20.40;82.60;;;;;;2042008;29;20055;-71
2021/06/17 02:20:29;;;;;;;12.20;11.00;;;20.30;82.70;;;;;;2042266;29;20537;-71
2021/06/17 02:21:31;;;;;;;11.65;10.55;;;20.30;82.70;;;;;;2033560;29;20024;-71
2021/06/17 02:22:34;;;;;;;12.40;11.10;;;20.30;82.80;;;;;;2034226;29;20036;-71
2021/06/17 02:23:37;;;;;;;11.95;10.63;;;20.30;82.80;;;;;;2042990;29;20447;-71
2021/06/17 02:24:40;;;;;;;11.98;10.80;;;20.30;82.90;;;;;;2033996;29;20032;-72
2021/06/17 02:25:44;;;;;;;11.82;10.73;;;20.30;83.10;;;;;;2026628;29;20037;-71
2021/06/17 02:26:48;;;;;;;12.85;11.60;;;20.30;83.40;;;;;;2026471;29;20123;-71
2021/06/17 02:27:55;;;;;;;13.23;11.88;;;20.30;83.70;;;;;;2033592;29;20622;-71
2021/06/17 02:28:58;;;;;;;13.13;11.90;;;20.30;84.50;;;;;;2033595;29;20033;-71
2021/06/17 02:30:06;;;;;;;13.05;11.75;;;20.30;84.70;;;;;;2027514;29;20488;-71
2021/06/17 02:31:10;;;;;;;12.98;11.63;;;20.30;84.40;;;;;;2024790;29;20135;-71
2021/06/17 02:32:14;;;;;;;12.95;11.68;;;20.30;85.10;;;;;;2017746;29;20088;-71
2021/06/17 02:33:17;;;;;;;14.07;11.82;;;20.30;85.30;;;;;;2032878;29;20515;-71
2021/06/17 02:34:19;;;;;;;13.27;11.95;;;20.30;85.50;;;;;;2031740;29;20035;-71
2021/06/17 02:35:26;;;;;;;13.45;12.15;;;20.20;85.70;;;;;;2033002;29;20439;-72
2021/06/17 02:36:27;;;;;;;12.63;11.43;;;20.20;85.90;;;;;;2041295;29;20036;-71
2021/06/17 02:37:31;;;;;;;13.05;11.80;;;20.20;86.00;;;;;;2032595;29;20093;-71
2021/06/17 02:38:39;;;;;;;13.25;12.00;;;20.20;86.20;;;;;;2033020;29;20079;-71
2021/06/17 02:39:41;;;;;;;13.38;12.07;;;20.10;86.40;;;;;;2040136;29;20031;-71
2021/06/17 02:40:45;;;;;;;12.95;11.65;;;20.10;86.50;;;;;;2040330;29;20035;-71
2021/06/17 02:41:52;;;;;;;12.77;11.40;;;20.10;86.50;;;;;;2040516;29;20032;-71
2021/06/17 02:42:55;;;;;;;12.65;11.45;;;20.10;86.20;;;;;;2032415;29;20063;-71
2021/06/17 02:43:58;;;;;;;13.15;11.80;;;20.00;86.00;;;;;;2033543;29;20074;-72
2021/06/17 02:44:59;;;;;;;12.77;11.48;;;20.00;85.80;;;;;;2033364;29;20035;-71
2021/06/17 02:46:00;;;;;;;12.95;11.65;;;20.00;85.60;;;;;;2035147;29;20607;-72
2021/06/17 02:47:01;;;;;;;13.23;11.93;;;20.00;85.50;;;;;;2035704;29;20032;-73
2021/06/17 02:48:02;;;;;;;12.45;11.20;;;20.00;85.30;;;;;;2034891;29;20055;-72
2021/06/17 02:49:07;;;;;;;12.80;11.57;;;20.00;85.20;;;;;;2027864;29;20064;-70
2021/06/17 02:50:09;;;;;;;12.68;11.40;;;20.00;85.10;;;;;;2028346;29;20036;-72
2021/06/17 02:51:09;;;;;;;12.32;11.07;;;20.00;84.90;;;;;;2027554;29;20124;-72
2021/06/17 02:52:10;;;;;;;12.30;11.10;;;20.00;84.90;;;;;;2035334;29;20032;-73
2021/06/17 02:53:11;;;;;;;11.77;10.65;;;20.00;84.70;;;;;;2034262;29;20071;-70
2021/06/17 02:54:18;;;;;;;12.40;11.15;;;20.00;84.50;;;;;;2025523;29;20457;-70
2021/06/17 02:55:19;;;;;;;12.13;10.90;;;20.00;84.40;;;;;;2026779;29;20036;-71
2021/06/17 02:56:27;;;;;;;12.00;10.90;;;20.00;84.30;;;;;;2033668;29;20068;-72
2021/06/17 02:57:48;;;;;;;12.23;11.07;;;20.00;84.40;;;;;;2041764;29;20036;-72
2021/06/17 02:58:51;;;;;;;12.32;11.07;;;20.00;84.10;;;;;;2033297;29;20048;-71
2021/06/17 03:00:12;;;;;;;12.20;11.00;;;20.00;84.10;;;;;;2033034;29;20059;-71
2021/06/17 03:01:24;;;;;;;12.70;11.50;;;20.00;84.00;;;;;;2030666;29;20036;-72
2021/06/17 03:02:40;;;;;;;12.30;11.05;;;20.00;84.00;;;;;;2033620;29;20032;-71
2021/06/17 03:03:49;;;;;;;12.35;11.15;;;20.00;83.80;;;;;;2033435;29;20032;-72
2021/06/17 03:04:54;;;;;;;12.50;11.30;;;20.00;83.70;;;;;;2032910;29;20035;-72
2021/06/17 03:06:02;;;;;;;11.75;10.65;;;20.10;83.90;;;;;;2033936;29;20028;-70
2021/06/17 03:07:07;;;;;;;13.05;11.75;;;20.10;83.80;;;;;;2033519;29;20039;-71
2021/06/17 03:08:17;;;;;;;12.40;11.20;;;20.10;83.70;;;;;;2033392;29;20091;-71
2021/06/17 03:09:30;;;;;;;12.75;11.50;;;20.10;83.60;;;;;;2041070;29;20038;-70
2021/06/17 03:10:32;;;;;;;11.82;10.63;;;20.10;83.40;;;;;;2041462;29;20031;-71
2021/06/17 03:11:35;;;;;;;12.35;11.15;;;20.10;83.40;;;;;;2033166;29;20036;-71
2021/06/17 03:12:38;;;;;;;12.68;11.45;;;20.10;83.60;;;;;;2033813;29;20028;-71
2021/06/17 03:13:46;;;;;;;13.95;11.70;;;20.10;83.70;;;;;;2041216;29;20083;-70
2021/06/17 03:14:49;;;;;;;13.48;12.07;;;20.20;83.40;;;;;;2032965;29;20025;-71
2021/06/17 03:15:50;;;;;;;13.65;12.25;;;20.20;83.40;;;;;;2017873;29;20029;-72
2021/06/17 03:16:55;;;;;;;13.05;11.75;;;20.20;83.40;;;;;;2025932;29;20044;-71
2021/06/17 03:18:00;;;;;;;13.32;12.02;;;20.20;83.40;;;;;;2041597;29;20554;-71
2021/06/17 03:19:01;;;;;;;13.50;11.60;;;20.20;83.20;;;;;;2033194;29;20036;-71
2021/06/17 03:20:05;;;;;;;12.75;11.45;;;20.20;83.10;;;;;;2025606;29;20467;-71
2021/06/17 03:21:07;;;;;;;11.98;10.88;;;20.30;83.10;;;;;;2033986;29;20043;-70
2021/06/17 03:22:12;;;;;;;12.60;11.30;;;20.30;83.10;;;;;;2033340;29;20071;-71
2021/06/17 03:23:23;;;;;;;12.43;11.02;;;20.20;83.10;;;;;;2018323;29;20508;-70
2021/06/17 03:24:28;;;;;;;12.00;10.88;;;20.20;83.00;;;;;;2019971;29;20032;-71
2021/06/17 03:25:29;;;;;;;12.48;11.27;;;20.30;83.10;;;;;;2025999;29;20047;-71
2021/06/17 03:26:32;;;;;;;12.70;11.50;;;20.30;83.10;;;;;;2033871;29;20040;-71
2021/06/17 03:27:33;;;;;;;12.68;11.45;;;20.30;83.10;;;;;;2033713;29;20833;-71
2021/06/17 03:28:35;;;;;;;12.07;10.88;;;20.30;83.10;;;;;;2033070;29;20175;-71
2021/06/17 03:29:41;;;;;;;11.95;10.85;;;20.30;83.10;;;;;;2025328;29;20059;-71
2021/06/17 03:30:45;;;;;;;11.80;10.68;;;20.30;83.10;;;;;;2026688;29;20040;-72
2021/06/17 03:31:46;;;;;;;11.50;10.50;;;20.30;82.90;;;;;;2026242;29;20416;-72
2021/06/17 03:32:49;;;;;;;12.07;10.85;;;20.30;82.70;;;;;;2035064;29;20036;-72
2021/06/17 03:33:51;;;;;;;12.85;11.40;;;20.30;82.60;;;;;;2035449;29;20488;-72
2021/06/17 03:34:54;;;;;;;11.93;10.68;;;20.30;82.20;;;;;;2043220;29;20039;-72
2021/06/17 03:35:55;;;;;;;12.20;11.02;;;20.40;82.20;;;;;;2035080;29;20032;-71
2021/06/17 03:37:00;;;;;;;12.43;11.13;;;20.40;81.90;;;;;;2033745;29;20024;-71
2021/06/17 03:38:02;;;;;;;12.23;11.02;;;20.40;81.60;;;;;;2033574;29;20084;-70
2021/06/17 03:39:04;;;;;;;12.30;11.10;;;20.40;81.30;;;;;;2017844;29;20033;-71
2021/06/17 03:40:06;;;;;;;12.18;10.98;;;20.40;81.00;;;;;;2026349;29;20048;-71
2021/06/17 03:41:08;;;;;;;11.63;10.50;;;20.40;80.90;;;;;;2034061;29;20047;-71
2021/06/17 03:42:11;;;;;;;11.48;10.30;;;20.50;81.00;;;;;;2026227;29;20147;-72
2021/06/17 03:43:13;;;;;;;11.95;10.75;;;20.50;80.80;;;;;;2034577;29;20035;-72
2021/06/17 03:44:15;;;;;;;11.65;10.55;;;20.50;80.60;;;;;;2034022;29;20039;-72
2021/06/17 03:45:17;;;;;;;11.48;10.38;;;20.50;80.50;;;;;;2034968;29;20035;-71
2021/06/17 03:46:19;;;;;;;11.18;10.18;;;20.60;80.40;;;;;;2019056;29;20116;-71
2021/06/17 03:47:23;;;;;;;11.45;10.27;;;20.60;80.30;;;;;;2019518;29;20105;-72
2021/06/17 03:48:25;;;;;;;11.52;10.43;;;20.60;80.00;;;;;;2035079;29;20024;-71
2021/06/17 03:49:27;;;;;;;11.48;10.38;;;20.60;80.00;;;;;;2034720;29;20032;-71
2021/06/17 03:50:28;;;;;;;10.90;9.90;;;20.60;79.90;;;;;;2034455;29;20040;-71
2021/06/17 03:51:29;;;;;;;11.80;10.70;;;20.70;79.70;;;;;;2034667;29;20028;-72
2021/06/17 03:52:31;;;;;;;11.38;10.23;;;20.70;79.20;;;;;;2042607;29;20034;-71
2021/06/17 03:53:32;;;;;;;12.07;10.88;;;20.80;79.20;;;;;;2034205;29;20020;-71
2021/06/17 03:54:33;;;;;;;11.73;10.52;;;20.80;78.80;;;;;;2026421;29;20494;-72
2021/06/17 03:55:35;;;;;;;12.10;10.80;;;20.80;78.50;;;;;;2026024;29;20043;-72
2021/06/17 03:56:37;;;;;;;12.10;10.80;;;20.90;78.40;;;;;;2033436;29;20026;-72
2021/06/17 03:57:39;;;;;;;12.32;11.02;;;20.90;78.30;;;;;;2033152;29;20028;-73
2021/06/17 03:58:46;;;;;;;13.00;11.63;;;20.90;78.30;;;;;;2041013;29;20035;-71
2021/06/17 03:59:47;;;;;;;12.48;11.20;;;21.00;78.00;;;;;;2041371;29;20384;-73
2021/06/17 04:00:48;;;;;;;11.52;10.38;;;21.00;77.80;;;;;;2032494;29;20040;-71
2021/06/17 04:01:50;;;;;;;11.63;10.43;;;21.00;77.60;;;;;;2032937;29;20425;-72
2021/06/17 04:02:54;;;;;;;12.57;10.73;;;21.10;77.50;;;;;;2041338;29;20365;-73
2021/06/17 04:03:54;;;;;;;12.00;10.43;;;21.40;77.00;;;;;;2041478;29;20019;-73
2021/06/17 04:04:55;;;;;;;12.25;10.95;;;21.70;76.10;;;;;;2040943;29;20475;-72
2021/06/17 04:05:58;;;;;;;11.13;9.82;;;22.00;74.90;;;;;;2041344;29;20031;-73
2021/06/17 04:07:04;;;;;;;10.85;9.75;;;22.40;73.50;;;;;;2032923;29;20035;-73
2021/06/17 04:08:10;;;;;;;11.00;9.88;;;22.90;71.70;;;;;;2025305;29;20032;-73
2021/06/17 04:09:11;;;;;;;10.90;9.85;;;23.30;69.80;;;;;;2025688;29;20092;-72
2021/06/17 04:10:15;;;;;;;10.57;9.52;;;23.70;68.10;;;;;;2025215;29;20032;-72
2021/06/17 04:11:18;;;;;;;11.88;9.27;;;24.10;66.30;;;;;;2025333;29;20032;-73
2021/06/17 04:12:22;;;;;;;10.48;9.38;;;24.40;64.60;;;;;;2032987;29;20028;-72
2021/06/17 04:13:26;;;;;;;9.85;8.93;;;24.80;63.30;;;;;;2041199;29;20047;-73
2021/06/17 04:14:27;;;;;;;10.00;9.10;;;25.00;62.90;;;;;;2040813;29;20040;-73
2021/06/17 04:15:31;;;;;;;10.32;8.68;;;25.30;60.60;;;;;;2032870;29;20488;-72
2021/06/17 04:16:33;;;;;;;9.85;8.90;;;25.60;59.50;;;;;;2025101;29;20048;-70
2021/06/17 04:17:40;;;;;;;9.90;8.68;;;25.80;58.80;;;;;;2025038;29;20484;-72
2021/06/17 04:18:43;;;;;;;9.55;8.57;;;26.00;58.10;;;;;;2025314;29;20024;-71
2021/06/17 04:19:45;;;;;;;9.80;8.80;;;26.20;57.40;;;;;;2032973;29;20127;-72
2021/06/17 04:20:47;;;;;;;10.20;9.10;;;26.40;56.80;;;;;;2041322;29;20024;-71
2021/06/17 04:21:51;;;;;;;11.95;8.80;;;26.60;55.70;;;;;;2041238;29;20035;-71
2021/06/17 04:22:54;;;;;;;9.90;8.82;;;26.60;55.20;;;;;;2041194;29;20036;-71
2021/06/17 04:23:57;;;;;;;11.77;8.57;;;26.70;54.60;;;;;;2041147;29;20115;-72
2021/06/17 04:25:04;;;;;;;9.07;8.27;;;26.80;54.60;;;;;;2040625;29;20058;-72
2021/06/17 04:26:05;;;;;;;10.23;8.50;;;27.00;54.50;;;;;;2041062;29;20022;-72
2021/06/17 04:27:07;;;;;;;9.38;8.38;;;27.20;54.10;;;;;;2032766;29;20127;-72
2021/06/17 04:28:08;;;;;;;9.82;8.25;;;27.30;53.70;;;;;;2032013;29;20040;-72
2021/06/17 04:29:09;;;;;;;9.43;8.52;;;27.40;53.10;;;;;;2040235;29;20059;-72
2021/06/17 04:30:11;;;;;;;11.45;8.77;;;27.50;52.90;;;;;;2040899;29;20035;-72
2021/06/17 04:31:14;;;;;;;9.45;8.32;;;27.60;52.50;;;;;;2032556;29;20032;-72
2021/06/17 04:32:15;;;;;;;9.88;8.38;;;27.70;52.30;;;;;;2033145;29;20648;-72
2021/06/17 04:33:20;;;;;;;11.82;9.00;;;27.70;52.00;;;;;;2041065;29;20130;-72
2021/06/17 04:34:22;;;;;;;10.05;8.50;;;27.70;51.70;;;;;;2040566;29;20066;-72
2021/06/17 04:35:24;;;;;;;9.05;8.02;;;27.80;51.70;;;;;;2024181;29;20029;-73
2021/06/17 04:36:25;;;;;;;9.35;8.25;;;27.90;51.60;;;;;;2024810;29;20040;-72
2021/06/17 04:37:27;;;;;;;9.80;8.25;;;28.10;51.50;;;;;;2041042;29;20106;-72
2021/06/17 04:38:28;;;;;;;8.45;7.70;;;28.20;51.20;;;;;;2031969;29;20087;-72
2021/06/17 04:39:30;;;;;;;9.80;8.48;;;28.30;50.80;;;;;;2032506;29;20540;-72
2021/06/17 04:40:34;;;;;;;9.23;8.27;;;28.40;51.10;;;;;;2032339;29;20084;-72
2021/06/17 04:41:39;;;;;;;11.32;8.43;;;28.50;49.70;;;;;;2033057;29;20034;-72
2021/06/17 04:42:41;;;;;;;9.07;8.13;;;28.30;49.80;;;;;;2040987;29;20032;-72
2021/06/17 04:43:42;;;;;;;9.73;8.00;;;28.30;50.10;;;;;;2041057;29;20032;-71
2021/06/17 04:44:44;;;;;;;10.30;7.70;;;28.50;50.00;;;;;;2040845;29;20032;-70
2021/06/17 04:45:47;;;;;;;8.80;7.93;;;28.50;49.60;;;;;;2032819;29;20036;-70
2021/06/17 04:46:47;;;;;;;8.90;8.10;;;28.70;49.50;;;;;;2032931;29;20647;-70
2021/06/17 04:47:49;;;;;;;10.77;8.23;;;28.80;49.10;;;;;;2032827;29;20103;-70
2021/06/17 04:48:52;;;;;;;8.27;7.40;;;28.60;48.70;;;;;;2040809;29;20024;-70
2021/06/17 04:49:53;;;;;;;8.70;7.72;;;28.70;48.70;;;;;;2041182;29;20107;-72
2021/06/17 04:50:55;;;;;;;9.20;8.30;;;28.90;48.60;;;;;;2041460;29;20403;-72
2021/06/17 04:51:56;;;;;;;9.40;8.00;;;28.70;48.10;;;;;;2025528;29;20024;-70
2021/06/17 04:52:57;;;;;;;10.82;7.80;;;28.70;48.40;;;;;;2017649;29;20120;-71
2021/06/17 04:53:58;;;;;;;8.82;7.78;;;28.70;48.00;;;;;;2033150;29;20174;-73
2021/06/17 04:54:59;;;;;;;8.45;7.60;;;28.80;48.30;;;;;;2033250;29;20032;-72
2021/06/17 04:56:00;;;;;;;9.43;7.82;;;28.90;48.30;;;;;;2032698;29;20029;-71
2021/06/17 04:57:00;;;;;;;9.60;7.40;;;29.00;47.80;;;;;;2033474;29;20028;-71
2021/06/17 04:58:01;;;;;;;8.88;7.57;;;29.10;47.60;;;;;;2025697;29;20509;-73
2021/06/17 04:59:02;;;;;;;10.52;7.90;;;29.20;47.00;;;;;;2017894;29;20428;-71
2021/06/17 05:00:04;;;;;;;8.32;7.30;;;29.20;46.90;;;;;;2023957;29;20419;-73
2021/06/17 05:01:10;;;;;;;9.75;7.90;;;29.30;47.00;;;;;;2025019;29;20404;-73
2021/06/17 05:02:14;;;;;;;10.95;8.05;;;29.40;46.70;;;;;;2033563;29;20032;-72
2021/06/17 05:03:16;;;;;;;8.95;7.50;;;29.20;46.70;;;;;;2033327;29;20051;-73
2021/06/17 05:04:18;;;;;;;10.00;7.50;;;29.20;47.10;;;;;;2024149;29;20037;-73
2021/06/17 05:05:18;;;;;;;8.85;7.90;;;29.30;46.70;;;;;;2017381;29;20025;-73
2021/06/17 05:06:20;;;;;;;8.93;7.47;;;29.30;46.20;;;;;;2024716;29;20830;-73
2021/06/17 05:10:54;;;;;;;8.00;7.20;;;30.10;45.20;;;;;;2024582;29;20560;-72
2021/06/17 05:11:55;;;;;;;7.68;6.93;;;30.20;44.70;;;;;;2018279;29;20045;-72
2021/06/17 05:12:56;;;;;;;7.90;6.90;;;30.00;44.70;;;;;;2024488;29;20211;-72
2021/06/17 05:13:57;;;;;;;8.93;6.93;;;30.10;44.40;;;;;;2024391;29;20060;-71
2021/06/17 05:14:58;;;;;;;10.50;7.90;;;30.20;44.50;;;;;;2024065;29;20033;-72
2021/06/17 05:16:01;;;;;;;7.78;6.97;;;29.80;44.30;;;;;;2033307;29;20123;-72
2021/06/17 05:17:02;;;;;;;9.25;7.57;;;29.80;44.90;;;;;;2033544;29;20024;-72
2021/06/17 05:18:03;;;;;;;12.52;7.57;;;29.80;44.80;;;;;;2025019;29;20088;-73
2021/06/17 05:19:03;;;;;;;8.20;7.10;;;29.80;45.00;;;;;;2025381;29;20029;-73
2021/06/17 05:20:06;;;;;;;7.97;7.28;;;30.00;44.90;;;;;;2033366;29;20444;-72
2021/06/17 05:21:07;;;;;;;7.75;7.00;;;29.80;45.10;;;;;;2034500;29;20123;-72
2021/06/17 05:22:09;;;;;;;14.27;8.20;;;30.00;45.10;;;;;;2033696;29;20104;-73
2021/06/17 05:23:13;;;;;;;10.07;8.13;;;30.00;44.60;;;;;;2032989;29;20032;-72
2021/06/17 05:24:14;;;;;;;10.27;7.10;;;30.10;44.90;;;;;;2032001;29;20127;-72
2021/06/17 05:25:15;;;;;;;7.82;7.13;;;30.10;44.30;;;;;;2033034;29;20035;-72
2021/06/17 05:26:15;;;;;;;11.90;8.07;;;30.30;44.40;;;;;;2032673;29;20063;-72